createdAt,value
2023-04-17T00:02:56.726Z,13.63
2023-04-17T00:05:59.379Z,13.65
2023-04-17T00:09:01.536Z,13.66
2023-04-17T00:12:04.220Z,13.61
2023-04-17T00:15:07.213Z,13.55
2023-04-17T00:18:09.669Z,13.63
2023-04-17T00:21:11.932Z,13.54
2023-04-17T00:24:14.527Z,13.50
2023-04-17T00:27:16.700Z,13.47
2023-04-17T00:30:19.282Z,13.43
2023-04-17T00:33:21.487Z,13.48
2023-04-17T00:36:23.962Z,13.43
2023-04-17T00:39:26.384Z,13.44
2023-04-17T00:42:28.798Z,13.35
2023-04-17T00:45:31.672Z,13.37
2023-04-17T00:48:35.618Z,13.33
2023-04-17T00:51:38.398Z,13.28
2023-04-17T00:54:40.908Z,13.22
2023-04-17T00:57:44.439Z,13.18
2023-04-17T01:00:47.097Z,13.17
2023-04-17T01:03:50.967Z,13.18
2023-04-17T01:06:53.661Z,13.15
2023-04-17T01:09:56.108Z,13.10
2023-04-17T01:13:06.559Z,13.02
2023-04-17T01:16:08.995Z,12.92
2023-04-17T01:19:14.848Z,12.81
2023-04-17T01:22:17.054Z,12.71
2023-04-17T01:25:19.734Z,12.56
2023-04-17T01:28:22.113Z,12.47
2023-04-17T01:31:26.305Z,12.38
2023-04-17T01:34:29.097Z,12.24
2023-04-17T01:37:31.572Z,12.24
2023-04-17T01:40:33.769Z,12.28
2023-04-17T01:43:41.232Z,12.35
2023-04-17T01:46:44.250Z,12.56
2023-04-17T01:49:46.827Z,12.67
2023-04-17T01:52:49.069Z,12.72
2023-04-17T01:55:52.148Z,12.82
2023-04-17T01:58:54.519Z,12.98
2023-04-17T02:01:57.424Z,12.99
2023-04-17T02:04:59.974Z,13.05
2023-04-17T02:08:02.278Z,13.18
2023-04-17T02:11:04.756Z,13.12
2023-04-17T02:14:06.894Z,13.14
2023-04-17T02:17:09.370Z,13.16
2023-04-17T02:20:12.321Z,13.15
2023-04-17T02:23:14.639Z,13.13
2023-04-17T02:26:17.144Z,13.19
2023-04-17T02:29:19.606Z,13.21
2023-04-17T02:32:22.473Z,13.26
2023-04-17T02:35:27.312Z,13.24
2023-04-17T02:38:30.881Z,13.24
2023-04-17T02:41:33.215Z,13.25
2023-04-17T02:44:36.032Z,13.26
2023-04-17T02:47:38.208Z,13.26
2023-04-17T02:50:40.707Z,13.22
2023-04-17T02:53:43.800Z,13.18
2023-04-17T02:56:46.216Z,13.21
2023-04-17T02:59:48.649Z,13.25
2023-04-17T03:02:51.303Z,13.18
2023-04-17T03:05:53.858Z,13.20
2023-04-17T03:08:56.953Z,13.17
2023-04-17T03:11:59.712Z,13.17
2023-04-17T03:15:02.425Z,13.16
2023-04-17T03:18:04.812Z,13.18
2023-04-17T03:21:07.731Z,13.13
2023-04-17T03:24:11.556Z,13.13
2023-04-17T03:27:14.297Z,13.03
2023-04-17T03:30:16.781Z,12.91
2023-04-17T03:33:19.959Z,12.86
2023-04-17T03:36:23.326Z,12.82
2023-04-17T03:39:27.053Z,12.81
2023-04-17T03:42:29.219Z,12.85
2023-04-17T03:45:31.600Z,12.82
2023-04-17T03:48:33.780Z,12.82
2023-04-17T03:51:36.301Z,12.86
2023-04-17T03:54:38.948Z,12.85
2023-04-17T03:57:41.436Z,12.89
2023-04-17T04:00:45.655Z,12.87
2023-04-17T04:03:49.244Z,12.89
2023-04-17T04:06:54.360Z,12.88
2023-04-17T04:09:56.988Z,12.83
2023-04-17T04:12:59.196Z,12.82
2023-04-17T04:16:01.941Z,12.87
2023-04-17T04:19:04.489Z,12.89
2023-04-17T04:22:07.861Z,12.96
2023-04-17T04:25:12.266Z,12.93
2023-04-17T04:28:17.734Z,12.97
2023-04-17T04:31:20.123Z,12.98
2023-04-17T04:34:25.792Z,12.94
2023-04-17T04:37:29.848Z,13.00
2023-04-17T04:40:38.235Z,12.92
2023-04-17T04:43:41.645Z,12.96
2023-04-17T04:46:45.206Z,12.90
2023-04-17T04:49:47.532Z,12.95
2023-04-17T04:52:51.439Z,13.00
2023-04-17T04:55:53.860Z,13.05
2023-04-17T04:58:56.780Z,13.05
2023-04-17T05:01:59.505Z,13.07
2023-04-17T05:05:02.490Z,13.13
2023-04-17T05:08:06.738Z,13.06
2023-04-17T05:11:09.830Z,13.01
2023-04-17T05:14:12.333Z,13.05
2023-04-17T05:17:15.290Z,13.12
2023-04-17T05:20:17.639Z,13.17
2023-04-17T05:23:22.805Z,13.20
2023-04-17T05:26:25.490Z,13.26
2023-04-17T05:29:28.129Z,13.32
2023-04-17T05:32:31.366Z,13.33
2023-04-17T05:35:34.074Z,13.36
2023-04-17T05:38:36.428Z,13.28
2023-04-17T05:41:41.584Z,13.33
2023-04-17T05:44:43.788Z,13.43
2023-04-17T05:47:46.747Z,13.46
2023-04-17T05:50:50.274Z,13.49
2023-04-17T05:53:52.845Z,13.60
2023-04-17T05:56:57.417Z,13.61
2023-04-17T06:00:00.366Z,13.65
2023-04-17T06:03:03.012Z,13.65
2023-04-17T06:06:06.235Z,13.62
2023-04-17T06:09:09.540Z,13.71
2023-04-17T06:12:15.959Z,13.83
2023-04-17T06:15:18.481Z,13.84
2023-04-17T06:18:21.062Z,13.77
2023-04-17T06:21:23.365Z,13.78
2023-04-17T06:24:26.854Z,13.88
2023-04-17T06:27:30.480Z,13.97
2023-04-17T06:30:32.937Z,13.95
2023-04-17T06:33:35.145Z,13.89
2023-04-17T06:36:38.757Z,13.95
2023-04-17T06:39:41.314Z,13.96
2023-04-17T06:42:44.066Z,13.96
2023-04-17T06:45:47.644Z,14.03
2023-04-17T06:48:52.139Z,13.99
2023-04-17T06:51:54.400Z,14.09
2023-04-17T06:54:57.159Z,14.11
2023-04-17T06:57:59.330Z,14.14
2023-04-17T07:01:02.381Z,14.27
2023-04-17T07:04:10.769Z,14.25
2023-04-17T07:07:13.324Z,14.35
2023-04-17T07:10:19.523Z,14.28
2023-04-17T07:13:22.156Z,14.36
2023-04-17T07:16:24.515Z,14.42
2023-04-17T07:19:30.475Z,14.52
2023-04-17T07:22:34.306Z,14.61
2023-04-17T07:25:36.741Z,14.81
2023-04-17T07:28:39.684Z,15.02
2023-04-17T07:31:42.257Z,15.12
2023-04-17T07:34:44.502Z,15.18
2023-04-17T07:37:46.920Z,15.25
2023-04-17T07:40:49.105Z,15.44
2023-04-17T07:43:51.625Z,15.54
2023-04-17T07:46:53.853Z,15.74
2023-04-17T07:49:56.663Z,15.92
2023-04-17T07:52:59.076Z,16.25
2023-04-17T07:56:02.120Z,16.71
2023-04-17T07:59:04.936Z,17.03
2023-04-17T08:02:07.961Z,17.31
2023-04-17T08:05:11.038Z,17.47
2023-04-17T08:08:13.393Z,17.78
2023-04-17T08:11:16.339Z,18.14
2023-04-17T08:14:20.371Z,18.51
2023-04-17T08:17:23.595Z,18.67
2023-04-17T08:20:27.297Z,18.82
2023-04-17T08:23:32.492Z,18.96
2023-04-17T08:26:35.350Z,19.03
2023-04-17T08:29:39.783Z,19.15
2023-04-17T08:32:45.592Z,19.72
2023-04-17T08:35:49.101Z,20.43
2023-04-17T08:38:52.462Z,20.81
2023-04-17T08:42:03.301Z,20.71
2023-04-17T08:45:09.425Z,20.70
2023-04-17T08:48:13.472Z,20.78
2023-04-17T08:51:16.511Z,20.92
2023-04-17T08:54:22.161Z,21.21
2023-04-17T08:57:24.434Z,21.20
2023-04-17T09:00:32.172Z,21.67
2023-04-17T09:03:47.182Z,21.82
2023-04-17T09:06:54.382Z,21.62
2023-04-17T09:09:57.321Z,21.70
2023-04-17T09:13:01.194Z,22.24
2023-04-17T09:16:08.767Z,22.17
2023-04-17T09:19:11.788Z,22.00
2023-04-17T09:22:22.378Z,21.54
2023-04-17T09:25:26.411Z,21.91
2023-04-17T09:28:30.133Z,21.94
2023-04-17T09:31:34.760Z,22.12
2023-04-17T09:34:41.455Z,21.47
2023-04-17T09:37:56.529Z,21.57
2023-04-17T09:40:58.937Z,21.09
2023-04-17T09:44:07.028Z,21.16
2023-04-17T09:47:11.351Z,20.79
2023-04-17T09:50:18.407Z,20.60
2023-04-17T09:53:20.696Z,20.33
2023-04-17T09:56:24.477Z,20.44
2023-04-17T09:59:27.601Z,20.46
2023-04-17T10:02:30.794Z,20.25
2023-04-17T10:05:33.339Z,19.97
2023-04-17T10:08:35.768Z,20.05
2023-04-17T10:11:41.722Z,19.71
2023-04-17T10:14:51.828Z,19.58
2023-04-17T10:17:58.004Z,19.42
2023-04-17T10:21:25.246Z,19.44
2023-04-17T10:24:28.276Z,19.44
2023-04-17T10:27:33.564Z,19.38
2023-04-17T10:30:55.526Z,19.36
2023-04-17T10:40:11.144Z,19.01
2023-04-17T10:43:17.654Z,18.83
2023-04-17T10:46:28.185Z,18.76
2023-04-17T10:49:47.193Z,18.83
2023-04-17T10:52:49.349Z,18.74
2023-04-17T10:55:52.398Z,18.69
2023-04-17T10:59:00.492Z,18.72
2023-04-17T11:02:04.780Z,18.65
2023-04-17T11:05:08.074Z,18.88
2023-04-17T11:08:11.665Z,18.87
2023-04-17T11:11:18.506Z,18.89
2023-04-17T11:14:23.634Z,18.69
2023-04-17T11:17:26.377Z,18.60
2023-04-17T11:20:36.146Z,18.57
2023-04-17T11:23:39.310Z,18.62
2023-04-17T11:26:51.164Z,18.58
2023-04-17T11:29:53.312Z,18.48
2023-04-17T11:33:00.885Z,18.56
2023-04-17T11:36:05.581Z,18.51
2023-04-17T11:39:09.071Z,18.58
2023-04-17T11:42:11.518Z,18.73
2023-04-17T11:45:19.609Z,18.78
2023-04-17T11:48:24.819Z,18.80
2023-04-17T11:51:27.802Z,18.81
2023-04-17T11:54:31.906Z,18.88
2023-04-17T11:57:43.551Z,18.78
2023-04-17T12:00:45.945Z,18.85
2023-04-17T12:03:48.647Z,18.86
2023-04-17T12:06:51.408Z,18.79
2023-04-17T12:10:00.690Z,18.76
2023-04-17T12:13:02.864Z,18.66
2023-04-17T12:16:05.765Z,18.71
2023-04-17T12:19:08.677Z,18.79
2023-04-17T12:22:11.148Z,18.81
2023-04-17T12:25:13.563Z,18.69
2023-04-17T12:28:16.551Z,18.69
2023-04-17T12:31:19.809Z,18.61
2023-04-17T12:34:22.400Z,18.57
2023-04-17T12:37:25.349Z,18.57
2023-04-17T12:40:28.026Z,18.67
2023-04-17T12:43:32.532Z,18.48
2023-04-17T12:46:35.245Z,18.44
2023-04-17T12:49:37.587Z,18.50
2023-04-17T12:52:41.202Z,18.65
2023-04-17T12:55:46.129Z,18.78
2023-04-17T12:58:50.161Z,18.92
2023-04-17T13:01:52.408Z,19.05
2023-04-17T13:04:56.491Z,19.23
2023-04-17T13:07:58.729Z,19.41
2023-04-17T13:11:03.798Z,19.54
2023-04-17T13:14:06.104Z,19.72
2023-04-17T13:17:08.962Z,19.79
2023-04-17T13:20:13.404Z,19.48
2023-04-17T13:23:16.850Z,19.17
2023-04-17T13:26:20.340Z,18.96
2023-04-17T13:29:22.808Z,18.69
2023-04-17T13:32:43.359Z,18.53
2023-04-17T13:39:11.644Z,18.22
2023-04-17T13:42:22.592Z,18.13
2023-04-17T13:45:26.800Z,18.02
2023-04-17T13:48:31.617Z,17.90
2023-04-17T13:51:34.505Z,17.84
2023-04-17T13:54:36.979Z,17.58
2023-04-17T13:57:40.659Z,17.38
2023-04-17T14:00:43.380Z,17.28
2023-04-17T14:03:48.276Z,17.24
2023-04-17T14:07:00.336Z,16.87
2023-04-17T14:18:02.993Z,16.59
2023-04-17T14:21:25.707Z,16.51
2023-04-17T14:25:01.264Z,16.50
2023-04-17T14:31:50.974Z,16.68
2023-04-17T14:34:53.316Z,16.70
2023-04-17T14:37:55.752Z,16.73
2023-04-17T14:40:57.985Z,16.77
2023-04-17T14:44:00.775Z,16.76
2023-04-17T14:47:03.192Z,16.84
2023-04-17T14:50:06.488Z,16.89
2023-04-17T14:53:08.732Z,16.93
2023-04-17T14:56:11.260Z,16.95
2023-04-17T14:59:13.490Z,16.93
2023-04-17T15:02:16.319Z,16.94
2023-04-17T15:05:21.650Z,16.96
2023-04-17T15:08:24.197Z,17.02
2023-04-17T15:11:26.428Z,16.89
2023-04-17T15:14:29.895Z,16.85
2023-04-17T15:17:32.112Z,16.88
2023-04-17T15:20:36.382Z,16.86
2023-04-17T15:23:38.694Z,16.88
2023-04-17T15:26:41.803Z,16.81
2023-04-17T15:29:46.824Z,16.81
2023-04-17T15:32:49.279Z,16.88
2023-04-17T15:35:55.990Z,16.82
2023-04-17T15:38:58.444Z,16.78
2023-04-17T15:42:01.004Z,16.80
2023-04-17T15:45:04.045Z,16.70
2023-04-17T15:48:06.368Z,16.67
2023-04-17T15:51:09.541Z,16.57
2023-04-17T15:54:12.120Z,16.59
2023-04-17T15:57:14.632Z,16.57
2023-04-17T16:00:17.206Z,16.59
2023-04-17T16:03:20.072Z,16.52
2023-04-17T16:06:22.456Z,16.43
2023-04-17T16:09:24.997Z,16.49
2023-04-17T16:12:28.224Z,16.49
2023-04-17T16:15:30.760Z,16.51
2023-04-17T16:18:32.968Z,16.45
2023-04-17T16:21:36.591Z,16.45
2023-04-17T16:24:38.715Z,16.38
2023-04-17T16:27:41.437Z,16.38
2023-04-17T16:30:43.729Z,16.30
2023-04-17T16:33:46.184Z,16.21
2023-04-17T16:36:49.474Z,16.22
2023-04-17T16:39:52.030Z,16.17
2023-04-17T16:42:54.187Z,16.17
2023-04-17T16:45:57.629Z,16.09
2023-04-17T16:49:00.649Z,16.04
2023-04-17T16:52:03.131Z,16.05
2023-04-17T16:55:06.239Z,15.96
2023-04-17T16:58:08.647Z,16.03
2023-04-17T17:01:10.914Z,15.95
2023-04-17T17:04:13.448Z,15.92
2023-04-17T17:07:15.655Z,15.94
2023-04-17T17:10:18.201Z,15.90
2023-04-17T17:13:20.420Z,15.92
2023-04-17T17:16:22.929Z,15.92
2023-04-17T17:19:25.205Z,15.89
2023-04-17T17:22:27.627Z,15.92
2023-04-17T17:25:29.808Z,15.78
2023-04-17T17:28:33.120Z,15.75
2023-04-17T17:31:35.356Z,15.80
2023-04-17T17:34:37.890Z,15.72
2023-04-17T17:37:40.113Z,15.67
2023-04-17T17:40:42.562Z,15.66
2023-04-17T17:43:44.671Z,15.59
2023-04-17T17:46:47.217Z,15.51
2023-04-17T17:49:49.550Z,15.56
2023-04-17T17:52:51.960Z,15.53
2023-04-17T17:55:55.740Z,15.49
2023-04-17T17:58:58.265Z,15.45
2023-04-17T18:02:02.086Z,15.38
2023-04-17T18:05:05.238Z,15.36
2023-04-17T18:08:07.360Z,15.29
2023-04-17T18:11:09.804Z,15.28
2023-04-17T18:14:12.135Z,15.39
2023-04-17T18:17:14.710Z,15.33
2023-04-17T18:20:16.979Z,15.28
2023-04-17T18:23:19.492Z,15.25
2023-04-17T18:26:22.350Z,15.24
2023-04-17T18:29:24.771Z,15.21
2023-04-17T18:32:27.024Z,15.24
2023-04-17T18:35:29.436Z,15.24
2023-04-17T18:38:31.984Z,15.17
2023-04-17T18:41:34.675Z,15.25
2023-04-17T18:44:37.352Z,15.16
2023-04-17T18:47:39.848Z,15.11
2023-04-17T18:50:42.174Z,15.07
2023-04-17T18:53:44.674Z,15.06
2023-04-17T18:56:46.797Z,15.03
2023-04-17T18:59:49.235Z,14.98
2023-04-17T19:02:51.439Z,14.93
2023-04-17T19:05:53.993Z,14.84
2023-04-17T19:08:57.082Z,14.93
2023-04-17T19:11:59.735Z,14.93
2023-04-17T19:15:02.524Z,14.91
2023-04-17T19:18:06.668Z,14.85
2023-04-17T19:21:09.024Z,14.83
2023-04-17T19:24:11.511Z,14.86
2023-04-17T19:27:13.788Z,14.82
2023-04-17T19:30:16.355Z,14.76
2023-04-17T19:33:18.988Z,14.73
2023-04-17T19:36:21.487Z,14.67
2023-04-17T19:39:26.602Z,14.57
2023-04-17T19:42:29.127Z,14.58
2023-04-17T19:45:32.639Z,14.52
2023-04-17T19:48:35.576Z,14.46
2023-04-17T19:51:38.525Z,14.43
2023-04-17T19:54:43.712Z,14.40
2023-04-17T19:57:45.853Z,14.40
2023-04-17T20:00:48.343Z,14.35
2023-04-17T20:03:51.396Z,14.36
2023-04-17T20:06:53.629Z,14.34
2023-04-17T20:09:56.348Z,14.32
2023-04-17T20:12:58.580Z,14.30
2023-04-17T20:16:01.025Z,14.31
2023-04-17T20:19:03.282Z,14.26
2023-04-17T20:22:05.808Z,14.26
2023-04-17T20:25:08.495Z,14.28
2023-04-17T20:28:10.961Z,14.26
2023-04-17T20:31:13.229Z,14.26
2023-04-17T20:34:15.843Z,14.43
2023-04-17T20:37:18.018Z,14.39
2023-04-17T20:40:20.555Z,14.44
2023-04-17T20:43:22.804Z,14.43
2023-04-17T20:46:26.411Z,14.40
2023-04-17T20:49:28.632Z,14.33
2023-04-17T20:52:31.025Z,14.42
2023-04-17T20:55:33.211Z,14.44
2023-04-17T20:58:35.725Z,14.34
2023-04-17T21:01:37.938Z,14.28
2023-04-17T21:04:40.417Z,14.30
2023-04-17T21:07:42.549Z,14.27
2023-04-17T21:10:45.001Z,14.24
2023-04-17T21:13:48.020Z,14.23
2023-04-17T21:16:50.488Z,14.14
2023-04-17T21:19:52.642Z,14.15
2023-04-17T21:22:55.108Z,14.06
2023-04-17T21:25:57.258Z,14.07
2023-04-17T21:28:59.645Z,14.10
2023-04-17T21:32:01.926Z,14.01
2023-04-17T21:35:04.768Z,14.06
2023-04-17T21:38:06.942Z,14.09
2023-04-17T21:41:09.430Z,13.99
2023-04-17T21:44:11.877Z,13.99
2023-04-17T21:47:16.426Z,14.02
2023-04-17T21:50:18.876Z,13.94
2023-04-17T21:53:21.308Z,14.07
2023-04-17T21:56:24.067Z,14.02
2023-04-17T21:59:26.583Z,13.96
2023-04-17T22:02:28.896Z,13.87
2023-04-17T22:05:31.363Z,13.92
2023-04-17T22:08:33.544Z,13.96
2023-04-17T22:11:37.997Z,13.92
2023-04-17T22:14:40.785Z,14.02
2023-04-17T22:17:43.251Z,13.82
2023-04-17T22:20:45.712Z,13.86
2023-04-17T22:23:48.233Z,13.79
2023-04-17T22:26:50.424Z,13.72
2023-04-17T22:29:52.884Z,13.67
2023-04-17T22:32:56.570Z,13.60
2023-04-17T22:35:59.016Z,13.48
2023-04-17T22:39:01.215Z,13.45
2023-04-17T22:42:03.745Z,13.41
2023-04-17T22:45:06.389Z,13.38
2023-04-17T22:48:08.888Z,13.27
2023-04-17T22:51:12.694Z,13.23
2023-04-17T22:54:22.686Z,13.20
2023-04-17T22:57:25.634Z,13.18
2023-04-17T23:00:28.258Z,13.13
2023-04-17T23:03:30.527Z,13.13
2023-04-17T23:06:32.923Z,13.10
2023-04-17T23:09:35.190Z,13.22
2023-04-17T23:12:37.658Z,13.15
2023-04-17T23:15:39.822Z,13.13
2023-04-17T23:18:42.313Z,13.07
2023-04-17T23:21:44.428Z,13.06
2023-04-17T23:24:46.903Z,13.15
2023-04-17T23:27:49.042Z,13.16
2023-04-17T23:30:51.551Z,13.12
2023-04-17T23:33:53.686Z,13.03
2023-04-17T23:36:56.149Z,13.01
2023-04-17T23:39:58.312Z,13.02
2023-04-17T23:43:00.866Z,12.95
2023-04-17T23:46:03.104Z,13.03
2023-04-17T23:49:05.579Z,12.84
2023-04-17T23:52:07.721Z,12.74
2023-04-17T23:55:10.208Z,12.66
2023-04-17T23:58:12.372Z,12.68
